Time;durP1;ratioP1;P1;durP2;ratioP2;P2;SDS_P1;SDS_P2;PMS_P1;PMS_P2;Temp;Humidity;BMP_temperature;BMP_pressure;BME280_temperature;BME280_humidity;BME280_pressure;Samples;Min_cycle;Max_cycle;Signal;HPM_P1;HPM_P2
2023/05/30 00:01:45;;;;;;;;;;;11.00;85.60;;;;;;5108214;28;19924;-80
2023/05/30 00:04:11;;;;;;;;;;;11.00;72.10;;;;;;5106568;28;19931;-84
2023/05/30 00:06:36;;;;;;;;;;;11.00;66.80;;;;;;5110250;28;19924;-79
2023/05/30 00:09:02;;;;;;;;;;;11.00;61.50;;;;;;5107707;28;19924;-79
2023/05/30 00:11:28;;;;;;;;;;;11.00;68.60;;;;;;5106900;28;20038;-80
2023/05/30 00:13:54;;;;;;;;;;;11.00;63.40;;;;;;5107807;28;19934;-81
2023/05/30 00:16:20;;;;;;;;;;;11.10;63.60;;;;;;5107948;28;19927;-81
2023/05/30 00:18:46;;;;;;;;;;;11.00;66.10;;;;;;5090726;28;20325;-80
2023/05/30 00:21:11;;;;;;;;;;;11.00;88.00;;;;;;5100548;28;20396;-84
2023/05/30 00:23:38;;;;;;;;;;;11.00;80.00;;;;;;5103776;28;19974;-80
2023/05/30 00:26:04;;;;;;;;;;;11.00;81.20;;;;;;5072413;28;20371;-80
2023/05/30 00:28:29;;;;;;;;;;;11.00;84.10;;;;;;5101456;28;19973;-81
2023/05/30 00:30:55;;;;;;;;;;;11.00;63.00;;;;;;5103726;28;19947;-80
2023/05/30 00:33:21;;;;;;;;;;;11.00;61.10;;;;;;5101513;28;20320;-80
2023/05/30 00:35:46;;;;;;;;;;;11.00;59.70;;;;;;5098482;28;19993;-80
2023/05/30 00:38:12;;;;;;;;;;;11.00;67.40;;;;;;5096049;28;19932;-81
2023/05/30 00:40:37;;;;;;;;;;;11.00;56.90;;;;;;5104426;28;19940;-80
2023/05/30 00:43:03;;;;;;;;;;;11.00;50.00;;;;;;5085592;28;20477;-81
2023/05/30 00:45:29;;;;;;;;;;;11.00;56.80;;;;;;5102580;28;19931;-81
2023/05/30 00:47:54;;;;;;;;;;;11.00;57.00;;;;;;5123212;28;19984;-79
2023/05/30 00:50:20;;;;;;;;;;;11.00;50.40;;;;;;5103422;28;20015;-80
2023/05/30 00:52:49;;;;;;;;;;;11.00;45.30;;;;;;5102812;28;19931;-79
2023/05/30 00:55:18;;;;;;;;;;;11.00;57.40;;;;;;5104733;28;19979;-83
2023/05/30 00:57:46;;;;;;;;;;;11.00;55.10;;;;;;5104562;28;20206;-80
2023/05/30 01:00:12;;;;;;;;;;;11.00;44.90;;;;;;5096345;28;19932;-83
2023/05/30 01:02:38;;;;;;;;;;;11.00;58.30;;;;;;5092553;28;19996;-80
2023/05/30 01:05:04;;;;;;;;;;;11.00;60.60;;;;;;5098578;28;19928;-80
2023/05/30 01:07:31;;;;;;;;;;;11.00;69.80;;;;;;5093431;28;19932;-80
2023/05/30 01:09:57;;;;;;;;;;;10.90;67.70;;;;;;5103481;28;19924;-80
2023/05/30 01:12:23;;;;;;;;;;;10.90;45.50;;;;;;5108523;28;19939;-80
2023/05/30 01:15:07;;;;;;;;;;;10.90;51.30;;;;;;5102501;28;20080;-80
2023/05/30 01:17:46;;;;;;;;;;;10.90;58.70;;;;;;5105946;28;20328;-80
2023/05/30 01:20:17;;;;;;;;;;;10.90;56.60;;;;;;5107054;28;19943;-80
2023/05/30 01:22:53;;;;;;;;;;;10.90;63.30;;;;;;5092544;28;19931;-80
2023/05/30 01:25:28;;;;;;;;;;;10.90;65.30;;;;;;5103560;28;19928;-83
2023/05/30 01:28:06;;;;;;;;;;;10.90;68.20;;;;;;5091802;28;20023;-80
2023/05/30 01:30:33;;;;;;;;;;;10.90;63.80;;;;;;5109249;28;19928;-80
2023/05/30 01:33:00;;;;;;;;;;;10.90;54.20;;;;;;5111485;28;19928;-80
2023/05/30 01:35:26;;;;;;;;;;;10.80;39.20;;;;;;5110519;28;20019;-79
2023/05/30 01:37:51;;;;;;;;;;;10.90;36.80;;;;;;5111687;28;20065;-80
2023/05/30 01:40:19;;;;;;;;;;;10.80;66.30;;;;;;5110477;28;19931;-82
2023/05/30 01:42:45;;;;;;;;;;;10.90;54.10;;;;;;5101816;28;19924;-80
2023/05/30 01:45:20;;;;;;;;;;;10.80;46.20;;;;;;5091819;28;19925;-79
2023/05/30 01:47:56;;;;;;;;;;;10.80;52.50;;;;;;5110647;28;19920;-79
2023/05/30 01:50:42;;;;;;;;;;;10.80;34.00;;;;;;5097009;28;19928;-81
2023/05/30 01:53:10;;;;;;;;;;;10.80;29.50;;;;;;5104621;28;19985;-79
2023/05/30 01:55:36;;;;;;;;;;;10.80;42.50;;;;;;5106517;27;19924;-80
2023/05/30 01:58:02;;;;;;;;;;;10.80;48.70;;;;;;5107388;28;20411;-80
2023/05/30 02:00:30;;;;;;;;;;;10.80;38.70;;;;;;5111067;28;20257;-80
2023/05/30 02:02:55;;;;;;;;;;;10.80;36.80;;;;;;5110999;28;19933;-80
2023/05/30 02:05:21;;;;;;;;;;;10.80;32.30;;;;;;5093756;28;19927;-80
2023/05/30 02:07:46;;;;;;;;;;;10.80;41.10;;;;;;5123829;27;19972;-79
2023/05/30 02:10:12;;;;;;;;;;;10.80;49.60;;;;;;5108126;28;20759;-80
2023/05/30 02:12:38;;;;;;;;;;;10.80;30.80;;;;;;5106052;28;19928;-79
2023/05/30 02:15:03;;;;;;;;;;;10.80;35.40;;;;;;5085327;28;19928;-80
2023/05/30 02:17:29;;;;;;;;;;;10.70;31.30;;;;;;5089793;28;20011;-80
2023/05/30 02:19:55;;;;;;;;;;;10.80;42.20;;;;;;5108882;28;19932;-80
2023/05/30 02:22:20;;;;;;;;;;;10.70;52.00;;;;;;5111288;28;19924;-80
2023/05/30 02:24:46;;;;;;;;;;;10.80;36.30;;;;;;5109879;28;19928;-80
2023/05/30 02:27:11;;;;;;;;;;;10.70;51.50;;;;;;5109097;28;19960;-80
2023/05/30 02:29:37;;;;;;;;;;;10.70;42.50;;;;;;5093230;28;19924;-79
2023/05/30 02:32:03;;;;;;;;;;;10.70;37.40;;;;;;5093893;28;20292;-80
2023/05/30 02:34:28;;;;;;;;;;;10.70;30.30;;;;;;5096321;28;19928;-84
2023/05/30 02:36:56;;;;;;;;;;;10.70;31.20;;;;;;5100078;28;19954;-81
2023/05/30 02:39:22;;;;;;;;;;;10.70;31.60;;;;;;5104819;28;19953;-79
2023/05/30 02:41:48;;;;;;;;;;;10.70;26.20;;;;;;5092680;28;19924;-79
2023/05/30 02:44:13;;;;;;;;;;;10.70;35.70;;;;;;5110360;28;19932;-80
2023/05/30 02:46:39;;;;;;;;;;;10.70;39.10;;;;;;5108135;28;19974;-80
2023/05/30 02:49:05;;;;;;;;;;;10.70;26.90;;;;;;5107472;28;19934;-80
2023/05/30 02:51:31;;;;;;;;;;;10.70;32.40;;;;;;5090864;28;19931;-82
2023/05/30 02:53:56;;;;;;;;;;;10.60;32.10;;;;;;5094012;28;19931;-82
2023/05/30 02:56:23;;;;;;;;;;;10.70;29.30;;;;;;5093453;28;20396;-79
2023/05/30 02:58:49;;;;;;;;;;;10.60;28.40;;;;;;5107864;28;19931;-80
2023/05/30 03:01:15;;;;;;;;;;;10.60;24.20;;;;;;5100310;28;19924;-80
2023/05/30 03:03:41;;;;;;;;;;;10.70;22.50;;;;;;5107108;28;20312;-81
2023/05/30 03:06:07;;;;;;;;;;;10.70;17.90;;;;;;5116379;27;19924;-79
2023/05/30 03:08:33;;;;;;;;;;;10.70;14.90;;;;;;5088776;28;19931;-80
2023/05/30 03:10:58;;;;;;;;;;;10.70;19.70;;;;;;5105959;28;19953;-79
2023/05/30 03:13:24;;;;;;;;;;;10.70;20.80;;;;;;5099807;28;20586;-80
2023/05/30 03:15:49;;;;;;;;;;;10.60;28.80;;;;;;5108873;28;19924;-79
2023/05/30 03:18:15;;;;;;;;;;;10.60;26.90;;;;;;5107774;28;19928;-79
2023/05/30 03:20:41;;;;;;;;;;;10.60;36.10;;;;;;5099851;28;19928;-79
2023/05/30 03:23:07;;;;;;;;;;;10.60;34.20;;;;;;5100084;28;19931;-79
2023/05/30 03:25:33;;;;;;;;;;;10.50;28.90;;;;;;5092628;28;19923;-80
2023/05/30 03:27:58;;;;;;;;;;;10.50;33.10;;;;;;5090875;28;19924;-82
2023/05/30 03:30:26;;;;;;;;;;;10.50;33.40;;;;;;5097087;28;19936;-80
2023/05/30 03:32:53;;;;;;;;;;;10.50;44.20;;;;;;5096382;28;19928;-80
2023/05/30 03:35:18;;;;;;;;;;;10.50;38.20;;;;;;5089192;28;19936;-81
2023/05/30 03:37:44;;;;;;;;;;;10.50;40.00;;;;;;5101017;28;19981;-80
2023/05/30 03:40:10;;;;;;;;;;;10.50;45.40;;;;;;5104658;28;19924;-82
2023/05/30 03:42:36;;;;;;;;;;;10.60;44.60;;;;;;5107274;28;19931;-81
2023/05/30 03:45:01;;;;;;;;;;;10.60;39.30;;;;;;5108573;28;19967;-80
2023/05/30 03:47:27;;;;;;;;;;;10.60;38.80;;;;;;5106520;28;20391;-79
2023/05/30 03:49:52;;;;;;;;;;;10.60;46.10;;;;;;5088945;28;19927;-79
2023/05/30 03:52:18;;;;;;;;;;;10.60;48.90;;;;;;5106504;28;20667;-79
2023/05/30 03:54:44;;;;;;;;;;;10.70;52.50;;;;;;5091159;28;19928;-79
2023/05/30 03:57:10;;;;;;;;;;;10.70;56.70;;;;;;5107464;28;19923;-80
2023/05/30 03:59:35;;;;;;;;;;;10.70;75.90;;;;;;5104733;28;19968;-79
2023/05/30 04:02:01;;;;;;;;;;;10.70;71.90;;;;;;5124270;27;19932;-80
2023/05/30 04:04:27;;;;;;;;;;;10.70;55.70;;;;;;5107324;28;19970;-79
2023/05/30 04:06:53;;;;;;;;;;;10.70;52.50;;;;;;5100797;28;19924;-81
2023/05/30 04:09:19;;;;;;;;;;;10.80;52.40;;;;;;5106707;28;20405;-81
2023/05/30 04:11:45;;;;;;;;;;;10.80;46.90;;;;;;5107354;28;19978;-79
2023/05/30 04:14:10;;;;;;;;;;;10.80;46.60;;;;;;5107415;28;20823;-80
2023/05/30 04:16:36;;;;;;;;;;;10.90;44.30;;;;;;5109055;28;19977;-81
2023/05/30 04:19:01;;;;;;;;;;;10.90;39.00;;;;;;5108401;28;19927;-80
2023/05/30 04:21:27;;;;;;;;;;;11.00;47.10;;;;;;5105905;28;20010;-79
2023/05/30 04:23:53;;;;;;;;;;;11.00;40.60;;;;;;5102697;28;19927;-81
2023/05/30 04:26:18;;;;;;;;;;;11.10;40.10;;;;;;5104217;28;20336;-78
2023/05/30 04:28:44;;;;;;;;;;;11.10;55.60;;;;;;5107006;28;19928;-81
2023/05/30 04:31:10;;;;;;;;;;;11.20;35.90;;;;;;5091227;28;19927;-77
2023/05/30 04:33:37;;;;;;;;;;;11.20;37.60;;;;;;5107578;28;20015;-79
2023/05/30 04:36:04;;;;;;;;;;;11.30;37.60;;;;;;5090373;28;19953;-77
2023/05/30 04:38:32;;;;;;;;;;;11.40;39.60;;;;;;5105553;28;19977;-77
2023/05/30 04:41:00;;;;;;;;;;;11.40;34.00;;;;;;5109924;28;19924;-79
2023/05/30 04:43:26;;;;;;;;;;;11.40;27.70;;;;;;5110309;28;19924;-79
2023/05/30 04:45:51;;;;;;;;;;;11.50;26.40;;;;;;5109464;28;19934;-81
2023/05/30 04:48:17;;;;;;;;;;;11.50;22.70;;;;;;5089783;28;19923;-80
2023/05/30 04:50:46;;;;;;;;;;;11.60;20.10;;;;;;5111623;28;20584;-80
2023/05/30 04:53:15;;;;;;;;;;;11.60;14.00;;;;;;5093186;28;20019;-80
2023/05/30 04:55:44;;;;;;;;;;;11.70;13.90;;;;;;5105757;28;19923;-81
2023/05/30 04:58:11;;;;;;;;;;;11.70;11.30;;;;;;5110938;28;19927;-83
2023/05/30 05:00:36;;;;;;;;;;;11.80;11.20;;;;;;5105777;28;19928;-83
2023/05/30 05:03:02;;;;;;;;;;;11.80;4.40;;;;;;5104087;28;19999;-83
2023/05/30 05:05:28;;;;;;;;;;;11.90;4.70;;;;;;5086557;28;19953;-82
2023/05/30 05:07:53;;;;;;;;;;;11.90;6.20;;;;;;5110144;28;19928;-84
2023/05/30 05:10:20;;;;;;;;;;;11.90;11.20;;;;;;5108250;28;19928;-83
2023/05/30 05:12:45;;;;;;;;;;;11.90;5.30;;;;;;5110071;28;19924;-82
2023/05/30 05:15:12;;;;;;;;;;;11.90;8.70;;;;;;5128321;27;20582;-84
2023/05/30 05:17:38;;;;;;;;;;;12.00;7.00;;;;;;5101173;28;20293;-81
2023/05/30 05:20:05;;;;;;;;;;;12.10;5.40;;;;;;5103657;28;20018;-79
2023/05/30 05:22:32;;;;;;;;;;;12.20;6.70;;;;;;5111058;28;19931;-78
2023/05/30 05:24:57;;;;;;;;;;;12.20;8.40;;;;;;5090798;27;19938;-80
2023/05/30 05:27:23;;;;;;;;;;;12.30;5.80;;;;;;5100348;28;19927;-79
2023/05/30 05:29:49;;;;;;;;;;;12.30;11.20;;;;;;5111799;28;19928;-79
2023/05/30 05:32:15;;;;;;;;;;;12.30;7.80;;;;;;5089000;28;19931;-78
2023/05/30 05:34:41;;;;;;;;;;;12.30;6.50;;;;;;5108237;28;19928;-78
2023/05/30 05:37:06;;;;;;;;;;;12.30;13.70;;;;;;5102413;28;19931;-78
2023/05/30 05:39:32;;;;;;;;;;;12.30;18.10;;;;;;5108077;27;19927;-78
2023/05/30 05:41:57;;;;;;;;;;;12.30;7.20;;;;;;5103752;28;19967;-80
2023/05/30 05:44:23;;;;;;;;;;;12.30;10.00;;;;;;5106177;28;19927;-81
2023/05/30 05:46:49;;;;;;;;;;;12.30;16.80;;;;;;5089410;28;19934;-80
2023/05/30 05:49:14;;;;;;;;;;;12.40;35.40;;;;;;5109028;28;20421;-83
2023/05/30 05:51:40;;;;;;;;;;;12.40;18.00;;;;;;5093352;28;19959;-82
2023/05/30 05:54:05;;;;;;;;;;;12.40;26.60;;;;;;5104982;28;19963;-81
2023/05/30 05:56:31;;;;;;;;;;;12.40;31.60;;;;;;5092241;28;19932;-81
2023/05/30 05:58:56;;;;;;;;;;;12.40;28.20;;;;;;5081177;28;20419;-83
2023/05/30 06:01:22;;;;;;;;;;;12.50;27.40;;;;;;5094368;28;19989;-80
2023/05/30 06:03:48;;;;;;;;;;;12.60;39.10;;;;;;5111708;28;19970;-80
2023/05/30 06:06:13;;;;;;;;;;;12.50;31.70;;;;;;5094532;28;19927;-81
2023/05/30 06:08:40;;;;;;;;;;;12.50;28.30;;;;;;5094509;28;20002;-83
2023/05/30 06:11:05;;;;;;;;;;;12.60;24.90;;;;;;5090693;28;19931;-84
2023/05/30 06:13:31;;;;;;;;;;;12.50;44.90;;;;;;5092286;28;19928;-80
2023/05/30 06:15:57;;;;;;;;;;;12.50;27.90;;;;;;5092308;28;19924;-83
2023/05/30 06:18:22;;;;;;;;;;;12.50;35.90;;;;;;5092183;28;20011;-81
2023/05/30 06:20:48;;;;;;;;;;;12.50;54.80;;;;;;5119155;27;20380;-80
2023/05/30 06:23:13;;;;;;;;;;;12.50;95.80;;;;;;5075017;28;20557;-81
2023/05/30 06:25:39;;;;;;;;;;;12.50;80.60;;;;;;5092200;28;19932;-82
2023/05/30 06:28:05;;;;;;;;;;;12.50;54.90;;;;;;5090200;28;19924;-81
2023/05/30 06:30:30;;;;;;;;;;;12.50;59.60;;;;;;5077379;28;20313;-80
2023/05/30 06:32:56;;;;;;;;;;;12.50;58.20;;;;;;5090985;28;19975;-80
2023/05/30 06:35:21;;;;;;;;;;;12.50;59.40;;;;;;5090784;28;19928;-80
2023/05/30 06:37:47;;;;;;;;;;;12.60;56.10;;;;;;5110724;28;19924;-81
2023/05/30 06:40:13;;;;;;;;;;;12.60;92.90;;;;;;5110316;28;19931;-80
2023/05/30 06:42:38;;;;;;;;;;;12.60;78.00;;;;;;5110777;28;19983;-82
2023/05/30 06:45:04;;;;;;;;;;;12.60;69.70;;;;;;5093679;28;20269;-81
2023/05/30 06:47:29;;;;;;;;;;;12.70;65.10;;;;;;5110575;28;19927;-80
2023/05/30 06:49:55;;;;;;;;;;;12.70;59.70;;;;;;5111338;28;20261;-81
2023/05/30 06:52:21;;;;;;;;;;;12.80;63.70;;;;;;5110184;28;19930;-81
2023/05/30 06:54:46;;;;;;;;;;;12.90;53.50;;;;;;5110418;28;19927;-81
2023/05/30 06:57:12;;;;;;;;;;;12.90;59.40;;;;;;5109755;28;19927;-80
2023/05/30 06:59:37;;;;;;;;;;;12.90;58.30;;;;;;5111098;28;20074;-81
2023/05/30 07:02:03;;;;;;;;;;;12.90;62.10;;;;;;5095964;28;19928;-83
2023/05/30 07:04:28;;;;;;;;;;;13.00;55.50;;;;;;5110344;28;20046;-81
2023/05/30 07:06:55;;;;;;;;;;;13.10;58.90;;;;;;5104476;28;19978;-81
2023/05/30 07:09:20;;;;;;;;;;;13.20;51.20;;;;;;5090049;28;19923;-82
2023/05/30 07:11:46;;;;;;;;;;;13.20;52.30;;;;;;5097418;28;19938;-81
2023/05/30 07:14:11;;;;;;;;;;;13.10;55.10;;;;;;5090158;28;19928;-80
2023/05/30 07:16:38;;;;;;;;;;;13.10;56.80;;;;;;5096552;28;19930;-81
2023/05/30 07:19:03;;;;;;;;;;;13.10;69.60;;;;;;5098787;28;20404;-80
2023/05/30 07:21:29;;;;;;;;;;;13.20;68.40;;;;;;5096133;28;19928;-81
2023/05/30 07:23:55;;;;;;;;;;;13.30;88.30;;;;;;5110598;28;19924;-81
2023/05/30 07:26:21;;;;;;;;;;;13.30;80.70;;;;;;5104088;28;19924;-81
2023/05/30 07:28:47;;;;;;;;;;;13.40;90.30;;;;;;5102233;28;20011;-80
2023/05/30 07:31:12;;;;;;;;;;;13.40;94.60;;;;;;5103743;28;20022;-81
2023/05/30 07:33:38;;;;;;;;;;;13.50;87.10;;;;;;5090987;28;19979;-81
2023/05/30 07:36:03;;;;;;;;;;;13.60;88.30;;;;;;5104092;28;20002;-81
2023/05/30 07:38:29;;;;;;;;;;;13.70;68.70;;;;;;5089785;28;19920;-83
2023/05/30 07:40:54;;;;;;;;;;;13.70;64.00;;;;;;5092355;28;19930;-81
2023/05/30 07:43:20;;;;;;;;;;;13.70;55.60;;;;;;5092246;28;20067;-80
2023/05/30 07:45:46;;;;;;;;;;;13.70;62.10;;;;;;5108088;28;19945;-80
2023/05/30 07:48:11;;;;;;;;;;;13.80;58.10;;;;;;5109660;28;20293;-85
2023/05/30 07:50:37;;;;;;;;;;;14.00;57.60;;;;;;5109423;28;19931;-81
2023/05/30 07:53:02;;;;;;;;;;;13.90;40.60;;;;;;5092954;28;20048;-80
2023/05/30 07:55:28;;;;;;;;;;;13.80;40.00;;;;;;5087059;28;19929;-81
2023/05/30 07:57:53;;;;;;;;;;;13.90;49.90;;;;;;5090068;28;20023;-82
2023/05/30 08:00:19;;;;;;;;;;;13.90;31.70;;;;;;5106302;28;19935;-82
2023/05/30 08:02:45;;;;;;;;;;;13.90;21.90;;;;;;5109613;28;19924;-80
2023/05/30 08:05:10;;;;;;;;;;;14.10;24.20;;;;;;5092167;28;19931;-80
2023/05/30 08:07:36;;;;;;;;;;;14.10;26.80;;;;;;5100379;28;19968;-83
2023/05/30 08:10:01;;;;;;;;;;;14.20;16.60;;;;;;5092160;28;20387;-80
2023/05/30 08:12:29;;;;;;;;;;;14.50;12.00;;;;;;5089774;28;19924;-80
2023/05/30 08:14:55;;;;;;;;;;;14.80;9.90;;;;;;5089566;28;19935;-81
2023/05/30 08:17:23;;;;;;;;;;;15.10;1.00;;;;;;5088949;28;19924;-80
2023/05/30 08:19:50;;;;;;;;;;;15.10;1.00;;;;;;5073091;28;19935;-83
2023/05/30 08:22:16;;;;;;;;;;;15.00;1.00;;;;;;5101249;28;19924;-87
2023/05/30 08:24:41;;;;;;;;;;;14.80;1.00;;;;;;5092171;28;19977;-80
2023/05/30 08:27:10;;;;;;;;;;;14.50;7.90;;;;;;5101161;28;19930;-80
2023/05/30 08:29:36;;;;;;;;;;;14.30;13.40;;;;;;5091157;28;19939;-80
2023/05/30 08:32:02;;;;;;;;;;;14.30;14.70;;;;;;5101590;28;19967;-81
2023/05/30 08:34:28;;;;;;;;;;;14.60;6.60;;;;;;5075923;28;19967;-81
2023/05/30 08:36:56;;;;;;;;;;;14.90;1.00;;;;;;5089890;28;19934;-81
2023/05/30 08:39:22;;;;;;;;;;;15.10;1.00;;;;;;5090614;28;19928;-81
2023/05/30 08:41:48;;;;;;;;;;;15.10;1.00;;;;;;5089981;28;20365;-81
2023/05/30 08:44:13;;;;;;;;;;;15.20;1.00;;;;;;5105254;28;20603;-82
2023/05/30 08:46:42;;;;;;;;;;;15.10;1.00;;;;;;5100068;28;19924;-82
2023/05/30 08:49:17;;;;;;;;;;;15.00;1.00;;;;;;5088250;28;19931;-80
2023/05/30 08:51:43;;;;;;;;;;;14.90;1.00;;;;;;5089536;28;20002;-82
2023/05/30 08:54:21;;;;;;;;;;;14.70;29.50;;;;;;5102531;28;19978;-81
2023/05/30 08:56:51;;;;;;;;;;;14.50;13.00;;;;;;5089780;28;20388;-80
2023/05/30 08:59:18;;;;;;;;;;;14.30;18.00;;;;;;5089209;28;19974;-80
2023/05/30 09:01:45;;;;;;;;;;;14.30;26.60;;;;;;5075344;28;19975;-82
2023/05/30 09:04:11;;;;;;;;;;;14.30;21.80;;;;;;5099513;28;19974;-80
2023/05/30 09:06:37;;;;;;;;;;;14.30;24.10;;;;;;5089247;28;19928;-81
2023/05/30 09:09:03;;;;;;;;;;;14.40;22.90;;;;;;5089802;28;20356;-80
2023/05/30 09:11:29;;;;;;;;;;;14.60;19.90;;;;;;5102419;28;19928;-80
2023/05/30 09:13:55;;;;;;;;;;;14.70;14.30;;;;;;5106460;28;20295;-80
2023/05/30 09:16:21;;;;;;;;;;;14.70;1.00;;;;;;5102474;28;19924;-86
2023/05/30 09:18:46;;;;;;;;;;;14.70;1.00;;;;;;5088898;28;19981;-80
2023/05/30 09:21:12;;;;;;;;;;;14.70;1.00;;;;;;5091704;28;19935;-81
2023/05/30 09:23:40;;;;;;;;;;;14.80;1.00;;;;;;5108991;28;19924;-80
2023/05/30 09:26:09;;;;;;;;;;;15.00;1.00;;;;;;5110572;28;20011;-81
2023/05/30 09:28:35;;;;;;;;;;;15.10;1.00;;;;;;5095188;28;19928;-81
2023/05/30 09:31:01;;;;;;;;;;;15.10;1.00;;;;;;5095550;28;19923;-80
2023/05/30 09:33:40;;;;;;;;;;;15.10;1.00;;;;;;5095333;28;19923;-80
2023/05/30 09:36:07;;;;;;;;;;;15.00;1.00;;;;;;5081883;28;19949;-81
2023/05/30 09:38:33;;;;;;;;;;;14.90;1.00;;;;;;5084198;28;20346;-81
2023/05/30 09:41:04;;;;;;;;;;;14.80;1.00;;;;;;5107138;28;19928;-81
2023/05/30 09:43:31;;;;;;;;;;;14.80;1.00;;;;;;5093002;28;19983;-82
2023/05/30 09:45:59;;;;;;;;;;;14.70;1.00;;;;;;5099050;28;20274;-80
2023/05/30 09:48:25;;;;;;;;;;;14.60;1.00;;;;;;5100025;28;20360;-84
2023/05/30 09:50:52;;;;;;;;;;;14.50;1.00;;;;;;5077804;28;19931;-80
2023/05/30 09:53:17;;;;;;;;;;;14.50;1.00;;;;;;5112241;28;20284;-81
2023/05/30 09:55:43;;;;;;;;;;;14.60;1.00;;;;;;5074328;28;19931;-81
2023/05/30 09:58:17;;;;;;;;;;;14.70;1.00;;;;;;5092345;28;19971;-81
2023/05/30 10:00:48;;;;;;;;;;;14.80;1.00;;;;;;5092453;28;19925;-80
2023/05/30 10:03:13;;;;;;;;;;;14.80;1.00;;;;;;5092324;28;19968;-81
2023/05/30 10:05:39;;;;;;;;;;;14.90;1.00;;;;;;5099752;28;20415;-82
2023/05/30 10:08:05;;;;;;;;;;;15.20;1.00;;;;;;5091390;28;19974;-81
2023/05/30 10:10:31;;;;;;;;;;;15.50;1.00;;;;;;5099660;28;19928;-82
2023/05/30 10:12:57;;;;;;;;;;;15.60;1.00;;;;;;5110603;28;19931;-80
2023/05/30 10:15:23;;;;;;;;;;;15.70;1.00;;;;;;5095213;28;19927;-81
2023/05/30 10:17:52;;;;;;;;;;;15.80;1.00;;;;;;5098353;28;19920;-82
2023/05/30 10:20:19;;;;;;;;;;;15.80;1.00;;;;;;5092575;28;19936;-80
2023/05/30 10:22:46;;;;;;;;;;;15.80;1.00;;;;;;5106708;28;19927;-81
2023/05/30 10:25:12;;;;;;;;;;;15.70;1.00;;;;;;5103656;28;19928;-81
2023/05/30 10:27:47;;;;;;;;;;;15.60;1.00;;;;;;5105176;28;20469;-80
2023/05/30 10:30:15;;;;;;;;;;;15.60;1.00;;;;;;5073793;28;19924;-80
2023/05/30 10:32:43;;;;;;;;;;;15.50;1.00;;;;;;5094248;28;19955;-80
2023/05/30 10:35:13;;;;;;;;;;;15.50;1.00;;;;;;5111376;28;19924;-80
2023/05/30 10:37:39;;;;;;;;;;;15.50;1.00;;;;;;5092202;28;20230;-80
2023/05/30 10:40:16;;;;;;;;;;;15.50;1.00;;;;;;5090778;28;19935;-81
2023/05/30 10:42:47;;;;;;;;;;;15.50;1.00;;;;;;5106665;28;20479;-81
2023/05/30 10:45:16;;;;;;;;;;;15.50;1.00;;;;;;5104186;28;19935;-81
2023/05/30 10:47:56;;;;;;;;;;;15.60;1.00;;;;;;5103483;28;19946;-81
2023/05/30 10:50:26;;;;;;;;;;;15.60;1.00;;;;;;5104807;28;20376;-81
2023/05/30 10:52:55;;;;;;;;;;;15.70;1.00;;;;;;5091230;28;20019;-82
2023/05/30 10:55:21;;;;;;;;;;;15.80;1.00;;;;;;5092091;28;19925;-81
2023/05/30 10:57:46;;;;;;;;;;;15.80;1.00;;;;;;5090600;28;19931;-81
2023/05/30 11:00:21;;;;;;;;;;;15.90;1.00;;;;;;5108120;28;19928;-81
2023/05/30 11:02:54;;;;;;;;;;;15.90;1.00;;;;;;5099584;28;19924;-80
2023/05/30 11:05:26;;;;;;;;;;;16.00;1.00;;;;;;5074123;28;19973;-80
2023/05/30 11:07:51;;;;;;;;;;;16.00;1.00;;;;;;5103257;28;20403;-81
2023/05/30 11:10:24;;;;;;;;;;;15.90;1.00;;;;;;5088185;28;19924;-80
2023/05/30 11:12:51;;;;;;;;;;;15.80;1.00;;;;;;5092580;28;19932;-82
2023/05/30 11:15:17;;;;;;;;;;;15.60;1.00;;;;;;5091739;28;19924;-80
2023/05/30 11:17:43;;;;;;;;;;;15.50;1.00;;;;;;5105935;28;19923;-80
2023/05/30 11:20:09;;;;;;;;;;;15.40;1.00;;;;;;5094085;28;20029;-81
2023/05/30 11:22:36;;;;;;;;;;;15.40;1.00;;;;;;5110154;28;19928;-81
2023/05/30 11:25:25;;;;;;;;;;;15.50;1.00;;;;;;5102787;28;19971;-80
2023/05/30 11:28:03;;;;;;;;;;;15.50;1.00;;;;;;5091527;28;20010;-80
2023/05/30 11:30:33;;;;;;;;;;;15.60;1.00;;;;;;5091436;28;20280;-83
2023/05/30 11:32:59;;;;;;;;;;;15.60;1.00;;;;;;5103537;28;19928;-81
2023/05/30 11:35:26;;;;;;;;;;;15.80;1.00;;;;;;5091305;28;19928;-81
2023/05/30 11:37:53;;;;;;;;;;;16.00;1.00;;;;;;5096567;28;19930;-81
2023/05/30 11:40:20;;;;;;;;;;;16.20;1.00;;;;;;5097166;28;19969;-81
2023/05/30 11:42:49;;;;;;;;;;;16.50;1.00;;;;;;5097334;28;19923;-80
2023/05/30 11:45:14;;;;;;;;;;;16.70;1.00;;;;;;5096031;28;19932;-81
2023/05/30 11:47:44;;;;;;;;;;;16.70;1.00;;;;;;5109444;28;19923;-85
2023/05/30 11:50:09;;;;;;;;;;;16.70;1.00;;;;;;5091774;28;19935;-81
2023/05/30 11:52:38;;;;;;;;;;;16.70;1.00;;;;;;5110244;28;19924;-81
2023/05/30 11:55:04;;;;;;;;;;;16.60;1.00;;;;;;5078929;28;19928;-81
2023/05/30 11:57:31;;;;;;;;;;;16.50;1.00;;;;;;5092622;28;19924;-81
2023/05/30 11:59:57;;;;;;;;;;;16.30;1.00;;;;;;5109112;28;19971;-81
2023/05/30 12:02:29;;;;;;;;;;;16.20;1.00;;;;;;5110035;28;20010;-80
2023/05/30 12:05:02;;;;;;;;;;;16.10;1.00;;;;;;5108217;28;20005;-81
2023/05/30 12:07:28;;;;;;;;;;;16.20;1.00;;;;;;5072725;28;20280;-80
2023/05/30 12:09:53;;;;;;;;;;;16.30;1.00;;;;;;5074990;28;19928;-81
2023/05/30 12:12:19;;;;;;;;;;;16.30;1.00;;;;;;5099499;28;19934;-82
2023/05/30 12:14:45;;;;;;;;;;;16.50;1.00;;;;;;5108457;28;19931;-84
2023/05/30 12:17:14;;;;;;;;;;;16.60;1.00;;;;;;5099549;28;19976;-81
2023/05/30 12:19:43;;;;;;;;;;;16.80;1.00;;;;;;5089475;28;19928;-81
2023/05/30 12:22:09;;;;;;;;;;;17.00;1.00;;;;;;5109077;28;19928;-81
2023/05/30 12:24:38;;;;;;;;;;;17.10;1.00;;;;;;5095895;28;19924;-81
2023/05/30 12:27:05;;;;;;;;;;;17.30;1.00;;;;;;5097636;28;19931;-83
2023/05/30 12:29:34;;;;;;;;;;;17.40;1.00;;;;;;5102351;28;19928;-81
2023/05/30 12:32:03;;;;;;;;;;;17.50;1.00;;;;;;5101073;28;19924;-81
2023/05/30 12:34:55;;;;;;;;;;;17.60;1.00;;;;;;5095310;28;19928;-83
2023/05/30 12:37:22;;;;;;;;;;;17.40;1.00;;;;;;5105205;28;19932;-81
2023/05/30 12:39:51;;;;;;;;;;;17.20;1.00;;;;;;5083224;28;19981;-83
2023/05/30 12:42:21;;;;;;;;;;;17.00;1.00;;;;;;5072526;28;19935;-81
2023/05/30 12:44:48;;;;;;;;;;;17.00;1.00;;;;;;5089292;28;19930;-85
2023/05/30 12:47:13;;;;;;;;;;;17.00;1.00;;;;;;5104742;28;19975;-82
2023/05/30 12:49:40;;;;;;;;;;;17.10;1.00;;;;;;5089916;28;20266;-82
2023/05/30 12:52:06;;;;;;;;;;;17.10;1.00;;;;;;5104710;28;19924;-81
2023/05/30 12:54:32;;;;;;;;;;;17.10;1.00;;;;;;5099930;28;20097;-83
2023/05/30 12:56:57;;;;;;;;;;;17.00;1.00;;;;;;5085763;28;20384;-81
2023/05/30 12:59:23;;;;;;;;;;;16.90;1.00;;;;;;5099185;28;19984;-80
2023/05/30 13:01:49;;;;;;;;;;;16.70;1.00;;;;;;5092414;28;19927;-86
2023/05/30 13:04:15;;;;;;;;;;;16.70;1.00;;;;;;5099779;28;19935;-81
2023/05/30 13:06:40;;;;;;;;;;;16.60;1.00;;;;;;5097847;28;20028;-81
2023/05/30 13:09:06;;;;;;;;;;;16.50;1.00;;;;;;5103431;28;19924;-81
2023/05/30 13:11:32;;;;;;;;;;;16.40;1.00;;;;;;5094825;28;20070;-81
2023/05/30 13:13:57;;;;;;;;;;;16.40;1.00;;;;;;5093603;28;19932;-81
2023/05/30 13:16:23;;;;;;;;;;;16.30;1.00;;;;;;5092944;28;19924;-81
2023/05/30 13:18:48;;;;;;;;;;;16.40;1.00;;;;;;5102676;28;19934;-81
2023/05/30 13:21:14;;;;;;;;;;;16.60;1.00;;;;;;5109148;28;19990;-83
2023/05/30 13:23:40;;;;;;;;;;;16.80;1.00;;;;;;5075990;28;20322;-81
2023/05/30 13:26:05;;;;;;;;;;;17.00;1.00;;;;;;5096192;28;19928;-81
2023/05/30 13:28:31;;;;;;;;;;;17.10;1.00;;;;;;5099537;28;20545;-81
2023/05/30 13:30:57;;;;;;;;;;;17.10;1.00;;;;;;5096389;28;19928;-81
2023/05/30 13:33:24;;;;;;;;;;;17.20;1.00;;;;;;5112625;28;19976;-81
2023/05/30 13:35:50;;;;;;;;;;;17.30;1.00;;;;;;5108751;28;19935;-81
2023/05/30 13:38:16;;;;;;;;;;;17.50;1.00;;;;;;5092095;28;19924;-80
2023/05/30 13:40:42;;;;;;;;;;;17.70;1.00;;;;;;5096264;28;19928;-81
2023/05/30 13:43:07;;;;;;;;;;;17.70;1.00;;;;;;5101822;28;20322;-80
2023/05/30 13:45:33;;;;;;;;;;;17.70;1.00;;;;;;5108896;28;19924;-81
2023/05/30 13:47:58;;;;;;;;;;;17.60;1.00;;;;;;5111852;28;19928;-81
2023/05/30 13:50:24;;;;;;;;;;;17.60;1.00;;;;;;5108693;28;20353;-82
2023/05/30 13:52:50;;;;;;;;;;;17.60;1.00;;;;;;5098191;28;20284;-81
2023/05/30 13:55:16;;;;;;;;;;;17.70;1.00;;;;;;5075355;28;20189;-81
2023/05/30 13:57:41;;;;;;;;;;;17.80;1.00;;;;;;5092399;28;19925;-81
2023/05/30 14:00:07;;;;;;;;;;;17.90;1.00;;;;;;5092351;28;20393;-81
2023/05/30 14:02:33;;;;;;;;;;;18.10;1.00;;;;;;5092349;28;20010;-81
2023/05/30 14:04:58;;;;;;;;;;;18.10;1.00;;;;;;5094193;28;20007;-81
2023/05/30 14:07:25;;;;;;;;;;;18.10;1.00;;;;;;5108701;28;20399;-82
2023/05/30 14:09:51;;;;;;;;;;;18.00;1.00;;;;;;5095928;28;20010;-80
2023/05/30 14:12:16;;;;;;;;;;;17.90;1.00;;;;;;5110188;28;20576;-80
2023/05/30 14:14:42;;;;;;;;;;;17.70;1.00;;;;;;5111088;28;20097;-81
2023/05/30 14:17:08;;;;;;;;;;;17.50;1.00;;;;;;5094469;28;19924;-80
2023/05/30 14:19:33;;;;;;;;;;;17.40;1.00;;;;;;5107768;28;19947;-81
2023/05/30 14:21:59;;;;;;;;;;;17.30;1.00;;;;;;5088613;28;19928;-85